Wainwright, AK

7:28 AM AKST on February 12, 2016 (GMT -0900)
Wainwright | | Change Station
CLOSE
Current Station
Airport
Location: Wainwright,
Elevation: 39 ft
Nearby Weather Stations
Active Advisory: Winter Weather Advisory

Elev 39 ft 70.64 °N, 159.99 °W | Updated 35 minutes ago

Light Snow
Light Snow Freezing Fog
6 °F
Feels Like -16 °F
N
24
Wind Variable Wind from ENE

Today
High -- | Low -- °F
--% Chance of Precip.
Yesterday
High -- | Low -- °F
Precip. -- in
Pressure 29.78 in
Visibility 0.5 miles
Clouds Overcast 1500 ft
Windchill -16 °F
Dew Point 2 °F
Humidity 83%
Rainfall 0.00 in
Snow Depth Not available.
10:35 AM 5:14 PM
Waxing Crescent, 21% visible
METAR PAWI 121553Z AUTO 06021KT 1/2SM -SN FZFG OVC015 M14/M17 A2977 RMK UPB03E06B31E46SNE03B46 SLP082 P0000 T11441167 TSNO VIA AUTODIAL
Pressure 29.78 in
Visibility 0.5 miles
Clouds Overcast 1500 ft
Windchill -16 °F
Dew Point 2 °F
Humidity 83%
Rainfall 0.00 in
Snow Depth Not available.
10:35 AM 5:14 PM
Waxing Crescent, 21% visible
METAR PAWI 121553Z AUTO 06021KT 1/2SM -SN FZFG OVC015 M14/M17 A2977 RMK UPB03E06B31E46SNE03B46 SLP082 P0000 T11441167 TSNO VIA AUTODIAL

10-Day Weather Forecast

Almanac

Astronomy

Feb. 12, 2016 Rise Set
Actual Time
Civil Twilight
Nautical Twilight
Astronomical Twilight
Moon
Length of Visible Light
Length of Day
Tomorrow will be .
, % of the Moon is Illuminated

Today's Extremes

State Highs State Lows

Community

WunderPhotos

Upload Photos

1,892,350 photos uploaded!

WunderBlog® & News

Nearby

Air Quality

  Air Quality AQ Index Pollutant
Not available.

Snow Depth

Station Depth Elevation

Earthquake Activity

City Distance Mag. Time & Date
Minimum magnitude displayed is 2.5.

Coastal Water Temperatures

Place Temperature

Stations

Nearby Weather Stations

Station Location Temp. Windchill Dew Point Humidity Wind Precip. Elev Updated Type
                   

Watches & Warnings

Winter Weather Advisory
Issued: 3:07 AM AKST Feb. 12, 2016 – National Weather Service

... Winter Weather Advisory in effect from 6 PM this evening to 6
PM akst Saturday...

The National Weather Service in Fairbanks has issued a Winter
Weather Advisory for blowing snow... which is in effect from 6 PM
this evening to 6 PM akst Saturday.

* Location... from Wainwright north.

* Blowing snow... reducing visibility to one half mile at times.

* Winds... east 20 to 30 mph.

* Timing... conditions are expected to begin this evening and
continue through Saturday.

* Impacts... visibility will be greatly reduced and snow will
accumulate into drifts. Whiteout conditions may occur. Travel
and outdoor activities will be difficult.

Precautionary/preparedness actions...

A Winter Weather Advisory means that one or more winter weather
hazards are expected to cause travel difficulties.